createdAt,value
2023-05-10T05:01:08.248Z,507.00
2023-05-10T05:02:08.273Z,511.00
2023-05-10T05:03:08.453Z,511.00
2023-05-10T05:04:08.338Z,511.00
2023-05-10T05:05:08.324Z,515.00
2023-05-10T05:06:08.387Z,515.00
2023-05-10T05:07:08.448Z,517.00
2023-05-10T05:08:08.425Z,517.00
2023-05-10T05:09:08.409Z,518.00
2023-05-10T05:10:08.435Z,517.00
2023-05-10T05:11:09.368Z,515.00
2023-05-10T05:12:08.405Z,511.00
2023-05-10T05:13:09.285Z,508.00
2023-05-10T05:14:08.312Z,508.00
2023-05-10T05:15:09.760Z,506.00
2023-05-10T05:16:08.411Z,507.00
2023-05-10T05:17:08.333Z,510.00
2023-05-10T05:18:08.339Z,510.00
2023-05-10T05:19:11.272Z,510.00
2023-05-10T05:20:08.287Z,511.00
2023-05-10T05:21:10.277Z,511.00
2023-05-10T05:22:08.307Z,509.00
2023-05-10T05:23:08.758Z,509.00
2023-05-10T05:24:08.265Z,509.00
2023-05-10T05:25:08.261Z,510.00
2023-05-10T05:26:08.293Z,511.00
2023-05-10T05:27:08.247Z,510.00
2023-05-10T05:28:08.744Z,508.00
2023-05-10T05:29:08.268Z,506.00
2023-05-10T05:30:08.224Z,507.00
2023-05-10T05:31:09.345Z,507.00
2023-05-10T05:32:08.457Z,506.00
2023-05-10T05:33:08.318Z,505.00
2023-05-10T05:34:08.176Z,504.00
2023-05-10T05:35:08.169Z,503.00
2023-05-10T05:36:08.239Z,502.00
2023-05-10T05:37:08.210Z,507.00
2023-05-10T05:38:08.233Z,506.00
2023-05-10T05:39:08.262Z,506.00
2023-05-10T05:40:08.260Z,506.00
2023-05-10T05:41:08.291Z,504.00
2023-05-10T05:42:08.685Z,505.00
2023-05-10T05:43:08.370Z,504.00
2023-05-10T05:44:08.497Z,501.00
2023-05-10T05:45:08.439Z,499.00
2023-05-10T05:46:08.568Z,502.00
2023-05-10T05:47:08.571Z,509.00
2023-05-10T05:48:08.839Z,509.00
2023-05-10T05:49:08.587Z,519.00
2023-05-10T05:50:08.712Z,567.00
2023-05-10T05:51:09.279Z,570.00
2023-05-10T05:52:08.717Z,583.00
2023-05-10T05:53:08.700Z,587.00
2023-05-10T05:54:08.765Z,586.00
2023-05-10T05:55:08.717Z,589.00
2023-05-10T05:56:08.869Z,593.00
2023-05-10T05:57:08.803Z,600.00
2023-05-10T05:58:08.812Z,608.00
2023-05-10T05:59:08.807Z,615.00
2023-05-10T06:00:09.218Z,623.00
2023-05-10T06:01:08.872Z,660.00
2023-05-10T06:02:08.860Z,658.00
2023-05-10T06:03:08.987Z,666.00
2023-05-10T06:04:08.959Z,677.00
2023-05-10T06:05:08.908Z,684.00
2023-05-10T06:06:09.137Z,689.00
2023-05-10T06:07:09.071Z,693.00
2023-05-10T06:08:09.051Z,693.00
2023-05-10T06:09:09.053Z,702.00
2023-05-10T06:10:08.998Z,711.00
2023-05-10T06:11:09.048Z,718.00
2023-05-10T06:12:09.061Z,745.00
2023-05-10T06:13:09.095Z,753.00
2023-05-10T06:14:09.137Z,742.00
2023-05-10T06:15:09.108Z,742.00
2023-05-10T06:16:09.130Z,747.00
2023-05-10T06:17:09.079Z,756.00
2023-05-10T06:18:09.139Z,764.00
2023-05-10T06:19:09.049Z,767.00
2023-05-10T06:20:09.866Z,775.00
2023-05-10T06:21:09.110Z,775.00
2023-05-10T06:22:09.028Z,780.00
2023-05-10T06:23:09.074Z,788.00
2023-05-10T06:24:09.074Z,791.00
2023-05-10T06:25:09.056Z,796.00
2023-05-10T06:26:08.999Z,801.00
2023-05-10T06:27:08.987Z,803.00
2023-05-10T06:28:08.985Z,805.00
2023-05-10T06:29:09.316Z,810.00
2023-05-10T06:30:12.798Z,811.00
2023-05-10T06:31:09.036Z,816.00
2023-05-10T06:32:09.033Z,820.00
2023-05-10T06:33:09.079Z,826.00
2023-05-10T06:34:09.034Z,834.00
2023-05-10T06:35:08.960Z,867.00
2023-05-10T06:36:09.010Z,868.00
2023-05-10T06:37:08.936Z,872.00
2023-05-10T06:38:08.929Z,872.00
2023-05-10T06:39:08.933Z,865.00
2023-05-10T06:40:08.921Z,855.00
2023-05-10T06:41:08.876Z,854.00
2023-05-10T06:42:08.897Z,863.00
2023-05-10T06:43:08.906Z,877.00
2023-05-10T06:44:08.872Z,881.00
2023-05-10T06:45:08.883Z,884.00
2023-05-10T06:46:08.941Z,886.00
2023-05-10T06:47:08.905Z,885.00
2023-05-10T06:48:08.896Z,884.00
2023-05-10T06:49:08.860Z,888.00
2023-05-10T06:50:09.107Z,890.00
2023-05-10T06:51:09.286Z,886.00
2023-05-10T06:52:08.943Z,882.00
2023-05-10T06:53:08.844Z,884.00
2023-05-10T06:54:08.804Z,889.00
2023-05-10T06:55:08.821Z,892.00
2023-05-10T06:56:08.832Z,900.00
2023-05-10T06:57:16.042Z,904.00
2023-05-10T06:58:09.777Z,912.00
2023-05-10T06:59:08.783Z,916.00
2023-05-10T07:00:08.877Z,921.00
2023-05-10T07:01:09.932Z,921.00
2023-05-10T07:02:08.850Z,922.00
2023-05-10T07:03:08.829Z,917.00
2023-05-10T07:04:08.773Z,914.00
2023-05-10T07:05:08.756Z,912.00
2023-05-10T07:06:13.328Z,910.00
2023-05-10T07:07:09.860Z,905.00
2023-05-10T07:08:08.714Z,895.00
2023-05-10T07:09:08.786Z,888.00
2023-05-10T07:10:08.706Z,883.00
2023-05-10T07:11:08.765Z,876.00
2023-05-10T07:12:10.612Z,870.00
2023-05-10T07:13:08.786Z,862.00
2023-05-10T07:14:08.729Z,852.00
2023-05-10T07:15:08.669Z,842.00
2023-05-10T07:16:08.663Z,838.00
2023-05-10T07:17:08.648Z,836.00
2023-05-10T07:18:08.777Z,830.00
2023-05-10T07:19:08.679Z,833.00
2023-05-10T07:20:08.629Z,834.00
2023-05-10T07:21:08.636Z,840.00
2023-05-10T07:22:08.615Z,843.00
2023-05-10T07:23:08.641Z,847.00
2023-05-10T07:24:08.674Z,853.00
2023-05-10T07:25:08.627Z,849.00
2023-05-10T07:26:08.580Z,850.00
2023-05-10T07:27:08.592Z,846.00
2023-05-10T07:28:08.623Z,843.00
2023-05-10T07:29:08.699Z,841.00
2023-05-10T07:30:08.556Z,834.00
2023-05-10T07:31:08.668Z,816.00
2023-05-10T07:32:08.628Z,814.00
2023-05-10T07:33:08.596Z,798.00
2023-05-10T07:34:08.561Z,794.00
2023-05-10T07:35:08.537Z,784.00
2023-05-10T07:36:08.579Z,781.00
2023-05-10T07:37:17.099Z,778.00
2023-05-10T07:38:09.545Z,777.00
2023-05-10T07:39:08.483Z,774.00
2023-05-10T07:40:08.495Z,775.00
2023-05-10T07:41:08.524Z,771.00
2023-05-10T07:42:08.452Z,769.00
2023-05-10T07:43:09.242Z,771.00
2023-05-10T07:44:08.459Z,772.00
2023-05-10T07:45:08.478Z,772.00
2023-05-10T07:46:08.502Z,773.00
2023-05-10T07:47:08.449Z,779.00
2023-05-10T07:48:08.512Z,841.00
2023-05-10T07:49:08.410Z,820.00
2023-05-10T07:50:08.410Z,817.00
2023-05-10T07:51:08.442Z,828.00
2023-05-10T07:52:08.421Z,841.00
2023-05-10T07:53:08.398Z,849.00
2023-05-10T07:54:08.372Z,855.00
2023-05-10T07:55:08.386Z,863.00
2023-05-10T07:56:08.452Z,857.00
2023-05-10T07:57:09.334Z,852.00
2023-05-10T07:58:08.371Z,852.00
2023-05-10T07:59:09.370Z,853.00
2023-05-10T08:00:08.548Z,849.00
2023-05-10T08:01:08.345Z,845.00
2023-05-10T08:02:08.386Z,844.00
2023-05-10T08:03:08.513Z,845.00
2023-05-10T08:04:08.440Z,840.00
2023-05-10T08:05:08.329Z,836.00
2023-05-10T08:06:08.291Z,828.00
2023-05-10T08:07:08.276Z,825.00
2023-05-10T08:08:08.308Z,818.00
2023-05-10T08:09:08.297Z,819.00
2023-05-10T08:10:08.275Z,818.00
2023-05-10T08:11:08.261Z,818.00
2023-05-10T08:12:08.305Z,813.00
2023-05-10T08:13:08.241Z,794.00
2023-05-10T08:14:08.250Z,782.00
2023-05-10T08:15:08.252Z,791.00
2023-05-10T08:16:08.302Z,787.00
2023-05-10T08:17:08.227Z,783.00
2023-05-10T08:18:08.304Z,780.00
2023-05-10T08:19:08.264Z,766.00
2023-05-10T08:20:08.231Z,777.00
2023-05-10T08:21:08.178Z,778.00
2023-05-10T08:22:08.231Z,778.00
2023-05-10T08:23:08.183Z,782.00
2023-05-10T08:24:08.204Z,776.00
2023-05-10T08:25:08.198Z,769.00
2023-05-10T08:26:08.132Z,758.00
2023-05-10T08:27:08.197Z,753.00
2023-05-10T08:28:09.907Z,754.00
2023-05-10T08:29:08.246Z,757.00
2023-05-10T08:30:08.280Z,756.00
2023-05-10T08:31:08.304Z,759.00
2023-05-10T08:32:08.225Z,768.00
2023-05-10T08:33:08.382Z,794.00
2023-05-10T08:34:08.348Z,802.00
2023-05-10T08:35:08.303Z,810.00
2023-05-10T08:36:08.319Z,835.00
2023-05-10T08:37:08.289Z,855.00
2023-05-10T08:38:08.289Z,868.00
2023-05-10T08:39:13.618Z,878.00
2023-05-10T08:40:09.251Z,901.00
2023-05-10T08:41:08.293Z,915.00
2023-05-10T08:42:08.279Z,919.00
2023-05-10T08:43:08.254Z,914.00
2023-05-10T08:44:08.258Z,908.00
2023-05-10T08:45:08.304Z,896.00
2023-05-10T08:46:08.312Z,811.00
2023-05-10T08:47:08.275Z,752.00
2023-05-10T08:48:08.300Z,737.00
2023-05-10T08:49:08.320Z,743.00
2023-05-10T08:50:08.426Z,739.00
2023-05-10T08:51:08.382Z,741.00
2023-05-10T08:52:08.455Z,741.00
2023-05-10T08:53:08.374Z,732.00
2023-05-10T08:54:08.393Z,693.00
2023-05-10T08:55:08.422Z,677.00
2023-05-10T08:56:08.425Z,676.00
2023-05-10T08:57:08.481Z,669.00
2023-05-10T08:58:08.450Z,667.00
2023-05-10T08:59:08.560Z,662.00
2023-05-10T09:00:08.469Z,661.00
2023-05-10T09:01:08.546Z,656.00
2023-05-10T09:02:08.500Z,654.00
2023-05-10T09:03:08.608Z,636.00
2023-05-10T09:04:08.629Z,626.00
2023-05-10T09:05:08.713Z,617.00
2023-05-10T09:06:08.568Z,603.00
2023-05-10T09:07:08.541Z,637.00
2023-05-10T09:08:08.650Z,642.00
2023-05-10T09:09:08.625Z,643.00
2023-05-10T09:10:08.621Z,669.00
2023-05-10T09:11:08.665Z,651.00
2023-05-10T09:12:08.660Z,643.00
2023-05-10T09:13:08.797Z,594.00
2023-05-10T09:14:08.777Z,597.00
2023-05-10T09:15:08.747Z,624.00
2023-05-10T09:16:20.318Z,620.00
2023-05-10T09:17:09.908Z,617.00
2023-05-10T09:18:08.843Z,614.00
2023-05-10T09:19:08.860Z,598.00
2023-05-10T09:20:08.750Z,597.00
2023-05-10T09:21:08.710Z,636.00
2023-05-10T09:22:08.708Z,633.00
2023-05-10T09:23:08.705Z,622.00
2023-05-10T09:24:08.702Z,564.00
2023-05-10T09:25:08.689Z,570.00
2023-05-10T09:26:08.703Z,565.00
2023-05-10T09:27:08.755Z,564.00
2023-05-10T09:28:08.687Z,557.00
2023-05-10T09:29:08.685Z,553.00
2023-05-10T09:30:08.670Z,547.00
2023-05-10T09:31:08.800Z,541.00
2023-05-10T09:32:08.765Z,542.00
2023-05-10T09:33:08.823Z,549.00
2023-05-10T09:34:08.934Z,563.00
2023-05-10T09:35:09.040Z,576.00
2023-05-10T09:36:09.045Z,581.00
2023-05-10T09:37:09.111Z,587.00
2023-05-10T09:38:09.100Z,590.00
2023-05-10T09:39:09.145Z,607.00
2023-05-10T09:40:09.223Z,609.00
2023-05-10T09:41:09.231Z,609.00
2023-05-10T09:42:09.245Z,612.00
2023-05-10T09:43:09.346Z,616.00
2023-05-10T09:44:09.328Z,669.00
2023-05-10T09:45:09.329Z,671.00
2023-05-10T09:46:09.433Z,675.00
2023-05-10T09:47:09.377Z,675.00
2023-05-10T09:48:09.451Z,676.00
2023-05-10T09:49:09.404Z,676.00
2023-05-10T09:50:09.419Z,684.00
2023-05-10T09:51:09.437Z,714.00
2023-05-10T09:52:09.478Z,723.00
2023-05-10T09:53:09.507Z,728.00
2023-05-10T09:54:09.497Z,735.00
2023-05-10T09:55:09.545Z,741.00
2023-05-10T09:56:09.509Z,752.00
2023-05-10T09:57:09.553Z,773.00
2023-05-10T09:58:09.630Z,784.00
2023-05-10T09:59:09.637Z,794.00
2023-05-10T10:00:09.589Z,797.00
2023-05-10T10:01:10.394Z,800.00
2023-05-10T10:02:09.632Z,806.00
2023-05-10T10:03:09.740Z,811.00
2023-05-10T10:04:09.662Z,817.00
2023-05-10T10:05:09.880Z,851.00
2023-05-10T10:06:18.828Z,875.00
2023-05-10T10:07:10.669Z,901.00
2023-05-10T10:08:09.681Z,912.00
2023-05-10T10:09:09.637Z,933.00
2023-05-10T10:10:09.637Z,952.00
2023-05-10T10:11:09.656Z,968.00
2023-05-10T10:12:09.666Z,985.00
2023-05-10T10:13:09.669Z,1001.00
2023-05-10T10:14:09.694Z,1018.00
2023-05-10T10:15:09.627Z,1039.00
2023-05-10T10:16:09.654Z,1049.00
2023-05-10T10:17:09.649Z,1051.00
2023-05-10T10:18:09.704Z,1057.00
2023-05-10T10:19:09.678Z,1069.00
2023-05-10T10:20:11.999Z,1088.00
2023-05-10T10:21:09.885Z,1106.00
2023-05-10T10:22:09.921Z,1154.00
2023-05-10T10:23:09.984Z,1163.00
2023-05-10T10:24:10.018Z,1165.00
2023-05-10T10:25:10.048Z,1067.00
2023-05-10T10:26:10.147Z,1070.00
2023-05-10T10:27:10.163Z,1093.00
2023-05-10T10:28:10.099Z,1094.00
2023-05-10T10:29:10.077Z,1033.00
2023-05-10T10:30:10.095Z,996.00
2023-05-10T10:31:10.112Z,995.00
2023-05-10T10:32:10.119Z,998.00
2023-05-10T10:33:16.830Z,1000.00
2023-05-10T10:34:11.108Z,1000.00
2023-05-10T10:35:10.070Z,1004.00
2023-05-10T10:36:10.018Z,1010.00
2023-05-10T10:37:10.037Z,1014.00
2023-05-10T10:38:10.051Z,1005.00
2023-05-10T10:39:10.899Z,903.00
2023-05-10T10:40:10.001Z,875.00
2023-05-10T10:41:09.979Z,865.00
2023-05-10T10:42:09.986Z,859.00
2023-05-10T10:43:09.937Z,858.00
2023-05-10T10:44:10.040Z,856.00
2023-05-10T10:45:09.927Z,861.00
2023-05-10T10:46:09.978Z,859.00
2023-05-10T10:47:10.011Z,852.00
2023-05-10T10:48:11.015Z,860.00
2023-05-10T10:49:09.964Z,871.00
2023-05-10T10:50:09.950Z,877.00
2023-05-10T10:51:12.212Z,887.00
2023-05-10T10:52:09.966Z,833.00
2023-05-10T10:53:10.006Z,709.00
2023-05-10T10:54:09.960Z,714.00
2023-05-10T10:55:09.930Z,733.00
2023-05-10T10:56:09.916Z,742.00
2023-05-10T10:57:09.962Z,737.00
2023-05-10T10:58:09.928Z,732.00
2023-05-10T10:59:09.925Z,730.00
2023-05-10T11:00:09.909Z,729.00
2023-05-10T11:01:09.925Z,731.00
2023-05-10T11:02:09.898Z,742.00
2023-05-10T11:03:10.001Z,737.00
2023-05-10T11:04:09.941Z,694.00
2023-05-10T11:05:09.868Z,717.00
2023-05-10T11:06:09.873Z,750.00
2023-05-10T11:07:09.876Z,732.00
2023-05-10T11:08:09.873Z,730.00
2023-05-10T11:09:09.797Z,733.00
2023-05-10T11:10:09.875Z,737.00
2023-05-10T11:11:09.894Z,745.00
2023-05-10T11:12:09.845Z,752.00
2023-05-10T11:13:09.765Z,760.00
2023-05-10T11:14:09.824Z,774.00
2023-05-10T11:15:09.785Z,790.00
2023-05-10T11:16:09.794Z,796.00
2023-05-10T11:17:09.834Z,809.00
2023-05-10T11:18:09.812Z,834.00
2023-05-10T11:19:09.915Z,847.00
2023-05-10T11:20:09.771Z,847.00
2023-05-10T11:21:09.777Z,845.00
2023-05-10T11:22:09.736Z,842.00
2023-05-10T11:23:09.792Z,805.00
2023-05-10T11:24:09.693Z,802.00
2023-05-10T11:25:09.731Z,785.00
2023-05-10T11:26:09.746Z,747.00
2023-05-10T11:27:09.715Z,734.00
2023-05-10T11:28:09.690Z,712.00
2023-05-10T11:29:09.732Z,702.00
2023-05-10T11:30:09.664Z,701.00
2023-05-10T11:31:09.754Z,702.00
2023-05-10T11:32:09.655Z,705.00
2023-05-10T11:33:09.817Z,767.00
2023-05-10T11:34:09.643Z,933.00
2023-05-10T11:35:09.657Z,820.00
2023-05-10T11:36:09.628Z,828.00
2023-05-10T11:37:09.627Z,838.00
2023-05-10T11:38:09.630Z,861.00
2023-05-10T11:39:09.619Z,871.00
2023-05-10T11:40:09.588Z,879.00
2023-05-10T11:41:09.611Z,891.00
2023-05-10T11:42:09.579Z,918.00
2023-05-10T11:43:09.565Z,923.00
2023-05-10T11:44:09.623Z,926.00
2023-05-10T11:45:09.575Z,928.00
2023-05-10T11:46:10.502Z,935.00
2023-05-10T11:47:09.538Z,954.00
2023-05-10T11:48:09.644Z,963.00
2023-05-10T11:49:09.552Z,970.00
2023-05-10T11:50:09.573Z,977.00
2023-05-10T11:51:09.627Z,990.00
2023-05-10T11:52:09.670Z,1006.00
2023-05-10T11:53:09.770Z,1015.00
2023-05-10T11:54:09.782Z,1032.00
2023-05-10T11:55:09.828Z,1040.00
2023-05-10T11:56:09.913Z,1058.00
2023-05-10T11:57:10.001Z,1068.00
2023-05-10T11:58:10.011Z,1081.00
2023-05-10T11:59:10.033Z,1105.00
2023-05-10T12:00:10.129Z,1132.00
2023-05-10T12:01:10.128Z,1169.00
2023-05-10T12:02:10.187Z,1177.00
2023-05-10T12:03:10.272Z,1180.00
2023-05-10T12:04:10.403Z,1186.00
2023-05-10T12:05:10.400Z,1198.00
2023-05-10T12:06:10.352Z,1264.00
2023-05-10T12:07:10.329Z,1279.00
2023-05-10T12:08:10.313Z,1275.00
2023-05-10T12:09:10.333Z,1275.00
2023-05-10T12:10:10.350Z,1270.00
2023-05-10T12:11:10.312Z,1184.00
2023-05-10T12:12:10.302Z,1183.00
2023-05-10T12:13:10.340Z,1159.00
2023-05-10T12:14:10.507Z,1130.00
2023-05-10T12:15:10.270Z,1121.00
2023-05-10T12:16:10.330Z,1109.00
2023-05-10T12:17:10.358Z,1090.00
2023-05-10T12:18:10.432Z,1072.00
2023-05-10T12:19:10.542Z,1065.00
2023-05-10T12:20:10.501Z,968.00
2023-05-10T12:21:10.611Z,869.00
2023-05-10T12:22:10.626Z,817.00
2023-05-10T12:23:10.659Z,743.00
2023-05-10T12:24:11.022Z,734.00
2023-05-10T12:25:10.710Z,717.00
2023-05-10T12:26:10.731Z,692.00
2023-05-10T12:27:10.693Z,635.00
2023-05-10T12:28:10.795Z,624.00
2023-05-10T12:29:10.980Z,638.00
2023-05-10T12:30:10.854Z,645.00
2023-05-10T12:31:10.871Z,652.00
2023-05-10T12:32:11.195Z,652.00
2023-05-10T12:33:11.019Z,649.00
2023-05-10T12:34:11.194Z,627.00
2023-05-10T12:35:11.056Z,635.00
2023-05-10T12:36:11.141Z,626.00
2023-05-10T12:37:11.165Z,600.00
2023-05-10T12:38:11.215Z,593.00
2023-05-10T12:39:11.275Z,639.00
2023-05-10T12:40:11.395Z,679.00
2023-05-10T12:41:11.414Z,604.00
2023-05-10T12:42:11.534Z,588.00
2023-05-10T12:43:11.493Z,589.00
2023-05-10T12:44:11.561Z,584.00
2023-05-10T12:45:11.584Z,580.00
2023-05-10T12:46:11.640Z,593.00
2023-05-10T12:47:11.710Z,588.00
2023-05-10T12:48:11.837Z,578.00
2023-05-10T12:49:11.815Z,570.00
2023-05-10T12:50:11.865Z,568.00
2023-05-10T12:51:11.829Z,574.00
2023-05-10T12:52:11.836Z,576.00
2023-05-10T12:53:11.877Z,575.00
2023-05-10T12:54:11.834Z,559.00
2023-05-10T12:55:11.888Z,553.00
2023-05-10T12:56:11.878Z,557.00
2023-05-10T12:57:11.843Z,563.00
2023-05-10T12:58:15.807Z,569.00
2023-05-10T12:59:12.916Z,574.00
2023-05-10T13:00:11.888Z,582.00
2023-05-10T13:01:11.895Z,585.00
2023-05-10T13:02:11.857Z,588.00
2023-05-10T13:03:11.851Z,595.00
2023-05-10T13:04:11.908Z,668.00
2023-05-10T13:05:12.013Z,663.00
2023-05-10T13:06:11.814Z,637.00
2023-05-10T13:07:11.787Z,645.00
2023-05-10T13:08:11.803Z,642.00
2023-05-10T13:09:11.784Z,639.00
2023-05-10T13:10:11.774Z,636.00
2023-05-10T13:11:11.832Z,626.00
2023-05-10T13:12:11.801Z,623.00
2023-05-10T13:13:11.775Z,631.00
2023-05-10T13:14:11.801Z,670.00
2023-05-10T13:15:11.810Z,661.00
2023-05-10T13:16:11.865Z,653.00
2023-05-10T13:17:11.996Z,652.00
2023-05-10T13:18:12.005Z,691.00
2023-05-10T13:19:12.074Z,697.00
2023-05-10T13:20:12.043Z,709.00
2023-05-10T13:21:12.080Z,717.00
2023-05-10T13:22:12.130Z,724.00
2023-05-10T13:23:12.161Z,729.00
2023-05-10T13:24:12.204Z,735.00
2023-05-10T13:25:12.269Z,738.00
2023-05-10T13:26:12.283Z,748.00
2023-05-10T13:27:12.299Z,761.00
2023-05-10T13:28:12.345Z,775.00
2023-05-10T13:29:12.373Z,780.00
2023-05-10T13:30:12.387Z,778.00
2023-05-10T13:31:12.413Z,771.00
2023-05-10T13:32:12.406Z,763.00
2023-05-10T13:33:12.462Z,751.00
2023-05-10T13:34:12.588Z,743.00
2023-05-10T13:35:12.519Z,737.00
2023-05-10T13:36:12.533Z,731.00
2023-05-10T13:37:12.561Z,726.00
2023-05-10T13:38:12.598Z,718.00
2023-05-10T13:39:12.699Z,710.00
2023-05-10T13:40:12.714Z,702.00
2023-05-10T13:41:12.757Z,696.00
2023-05-10T13:42:12.731Z,692.00
2023-05-10T13:43:12.806Z,691.00
2023-05-10T13:44:12.869Z,687.00
2023-05-10T13:45:13.948Z,684.00
2023-05-10T13:46:12.976Z,681.00
2023-05-10T13:47:12.954Z,679.00
2023-05-10T13:48:13.013Z,673.00
2023-05-10T13:49:13.048Z,670.00
2023-05-10T13:50:13.108Z,667.00
2023-05-10T13:51:13.110Z,668.00
2023-05-10T13:52:13.198Z,666.00
2023-05-10T13:53:13.153Z,664.00
2023-05-10T13:54:13.767Z,665.00
2023-05-10T13:55:13.317Z,667.00
2023-05-10T13:56:13.301Z,668.00
2023-05-10T13:57:13.321Z,670.00
2023-05-10T13:58:13.375Z,672.00
2023-05-10T13:59:13.413Z,673.00
2023-05-10T14:00:13.492Z,673.00
2023-05-10T14:01:13.536Z,675.00
2023-05-10T14:02:13.756Z,677.00
2023-05-10T14:03:13.647Z,678.00
2023-05-10T14:04:13.581Z,679.00
2023-05-10T14:05:14.022Z,680.00
2023-05-10T14:06:13.649Z,682.00
2023-05-10T14:07:13.667Z,682.00
2023-05-10T14:08:13.747Z,681.00
2023-05-10T14:09:13.847Z,688.00
2023-05-10T14:10:13.788Z,696.00
2023-05-10T14:11:13.846Z,700.00
2023-05-10T14:12:13.858Z,705.00
2023-05-10T14:13:13.880Z,710.00
2023-05-10T14:14:13.914Z,713.00
2023-05-10T14:15:13.953Z,709.00
2023-05-10T14:16:14.007Z,712.00
2023-05-10T14:17:13.957Z,717.00
2023-05-10T14:18:14.031Z,722.00
2023-05-10T14:19:14.035Z,725.00
2023-05-10T14:20:14.057Z,733.00
2023-05-10T14:21:14.061Z,732.00
2023-05-10T14:22:14.101Z,734.00
2023-05-10T14:23:14.104Z,731.00
2023-05-10T14:24:14.136Z,733.00
2023-05-10T14:25:14.151Z,737.00
2023-05-10T14:26:14.142Z,742.00
2023-05-10T14:27:14.175Z,742.00
2023-05-10T14:28:14.279Z,738.00
2023-05-10T14:29:14.294Z,737.00
2023-05-10T14:30:14.293Z,735.00
2023-05-10T14:31:14.270Z,733.00
2023-05-10T14:32:14.338Z,731.00
2023-05-10T14:33:14.309Z,725.00
2023-05-10T14:34:14.324Z,729.00
2023-05-10T14:35:15.558Z,735.00
2023-05-10T14:36:14.335Z,745.00
2023-05-10T14:37:14.351Z,753.00
2023-05-10T14:38:14.356Z,758.00
2023-05-10T14:39:14.423Z,762.00
2023-05-10T14:40:14.348Z,769.00
2023-05-10T14:41:14.332Z,776.00
2023-05-10T14:42:14.303Z,780.00
2023-05-10T14:43:14.340Z,785.00
2023-05-10T14:44:14.286Z,788.00
2023-05-10T14:45:14.295Z,786.00
2023-05-10T14:46:14.294Z,788.00
2023-05-10T14:47:14.316Z,790.00
2023-05-10T14:48:14.248Z,792.00
2023-05-10T14:49:14.228Z,794.00
2023-05-10T14:50:24.749Z,797.00
2023-05-10T14:51:15.251Z,797.00
2023-05-10T14:52:14.235Z,798.00
2023-05-10T14:53:14.223Z,800.00
2023-05-10T14:54:14.258Z,809.00
2023-05-10T14:55:14.325Z,804.00
2023-05-10T14:56:14.259Z,762.00
2023-05-10T14:57:14.196Z,761.00
2023-05-10T14:58:14.221Z,756.00
2023-05-10T14:59:14.224Z,751.00
2023-05-10T15:00:14.289Z,745.00
2023-05-10T15:01:14.170Z,744.00
2023-05-10T15:02:14.187Z,740.00
2023-05-10T15:03:14.280Z,734.00
2023-05-10T15:04:14.184Z,735.00
2023-05-10T15:05:14.292Z,737.00
2023-05-10T15:06:14.132Z,735.00
2023-05-10T15:07:14.114Z,733.00
2023-05-10T15:08:14.126Z,733.00
2023-05-10T15:09:14.134Z,734.00
2023-05-10T15:10:14.108Z,737.00
2023-05-10T15:11:14.140Z,740.00
2023-05-10T15:12:14.121Z,747.00
2023-05-10T15:13:14.177Z,755.00
2023-05-10T15:14:14.170Z,757.00
2023-05-10T15:15:14.290Z,760.00
2023-05-10T15:16:14.223Z,759.00
2023-05-10T15:17:14.259Z,771.00
2023-05-10T15:18:14.270Z,780.00
2023-05-10T15:19:14.278Z,786.00
2023-05-10T15:20:14.366Z,790.00
2023-05-10T15:21:14.335Z,798.00
2023-05-10T15:22:14.367Z,675.00
2023-05-10T15:23:14.420Z,607.00
2023-05-10T15:24:14.445Z,595.00
2023-05-10T15:25:14.608Z,580.00
2023-05-10T15:26:14.575Z,561.00
2023-05-10T15:27:14.572Z,545.00
2023-05-10T15:28:14.580Z,545.00
2023-05-10T15:29:14.734Z,551.00
2023-05-10T15:30:14.650Z,553.00
2023-05-10T15:31:14.754Z,552.00
2023-05-10T15:32:14.687Z,552.00
2023-05-10T15:33:14.669Z,572.00
2023-05-10T15:34:14.693Z,640.00
2023-05-10T15:35:14.982Z,635.00
2023-05-10T15:36:14.786Z,630.00
2023-05-10T15:37:14.859Z,630.00
2023-05-10T15:38:14.936Z,641.00
2023-05-10T15:39:14.971Z,652.00
2023-05-10T15:40:14.997Z,660.00
2023-05-10T15:41:15.054Z,665.00
2023-05-10T15:42:15.131Z,668.00
2023-05-10T15:43:15.156Z,672.00
2023-05-10T15:44:15.180Z,679.00
2023-05-10T15:45:15.379Z,681.00
2023-05-10T15:46:15.284Z,678.00
2023-05-10T15:47:15.337Z,675.00
2023-05-10T15:48:15.478Z,675.00
2023-05-10T15:49:15.476Z,671.00
2023-05-10T15:50:15.438Z,669.00
2023-05-10T15:51:15.489Z,668.00
2023-05-10T15:52:15.578Z,667.00
2023-05-10T15:53:15.574Z,666.00
2023-05-10T15:54:15.582Z,663.00
2023-05-10T15:55:15.823Z,663.00
2023-05-10T15:56:15.690Z,665.00
2023-05-10T15:57:15.712Z,669.00
2023-05-10T15:58:15.771Z,668.00
2023-05-10T15:59:15.816Z,669.00
2023-05-10T16:00:15.863Z,669.00
2023-05-10T16:01:15.923Z,672.00
2023-05-10T16:02:15.953Z,675.00
2023-05-10T16:03:15.990Z,674.00
2023-05-10T16:04:15.984Z,675.00
2023-05-10T16:05:16.239Z,678.00
2023-05-10T16:06:16.077Z,678.00
2023-05-10T16:07:16.096Z,680.00
2023-05-10T16:08:16.112Z,680.00
2023-05-10T16:09:16.264Z,679.00
2023-05-10T16:10:16.184Z,678.00
2023-05-10T16:11:16.213Z,678.00
2023-05-10T16:12:16.264Z,675.00
2023-05-10T16:13:16.306Z,674.00
2023-05-10T16:14:16.351Z,673.00
2023-05-10T16:15:16.644Z,673.00
2023-05-10T16:16:16.533Z,674.00
2023-05-10T16:17:16.589Z,673.00
2023-05-10T16:18:16.542Z,670.00
2023-05-10T16:19:16.551Z,671.00
2023-05-10T16:20:16.591Z,670.00
2023-05-10T16:21:16.582Z,668.00
2023-05-10T16:22:16.657Z,668.00
2023-05-10T16:23:16.692Z,666.00
2023-05-10T16:24:16.682Z,666.00
2023-05-10T16:25:16.989Z,666.00
2023-05-10T16:26:16.776Z,666.00
2023-05-10T16:27:16.799Z,666.00
2023-05-10T16:28:16.838Z,666.00
2023-05-10T16:29:16.859Z,665.00
2023-05-10T16:30:16.902Z,666.00
2023-05-10T16:31:17.030Z,665.00
2023-05-10T16:32:16.975Z,667.00
2023-05-10T16:33:17.009Z,665.00
2023-05-10T16:34:17.083Z,664.00
2023-05-10T16:35:17.407Z,667.00
2023-05-10T16:36:17.115Z,668.00
2023-05-10T16:37:17.140Z,669.00
2023-05-10T16:38:17.201Z,668.00
2023-05-10T16:39:17.590Z,665.00
2023-05-10T16:40:17.294Z,664.00
2023-05-10T16:41:17.303Z,661.00
2023-05-10T16:42:17.329Z,664.00
2023-05-10T16:43:17.378Z,665.00
2023-05-10T16:44:18.930Z,663.00
2023-05-10T16:45:17.662Z,661.00
2023-05-10T16:46:17.427Z,659.00
2023-05-10T16:47:17.415Z,660.00
2023-05-10T16:48:17.386Z,659.00
2023-05-10T16:49:17.427Z,656.00
2023-05-10T16:50:17.392Z,661.00
2023-05-10T16:51:17.380Z,661.00
2023-05-10T16:52:17.383Z,659.00
2023-05-10T16:53:17.366Z,660.00
2023-05-10T16:54:17.366Z,658.00
2023-05-10T16:55:17.568Z,661.00
2023-05-10T16:56:17.326Z,662.00
2023-05-10T16:57:17.329Z,662.00
2023-05-10T16:58:17.304Z,662.00
2023-05-10T16:59:17.288Z,662.00
2023-05-10T17:00:17.300Z,662.00
